createdAt,value
2018-03-09T00:00:29.057Z,11.70
2018-03-09T00:03:12.587Z,10.83
2018-03-09T00:05:41.443Z,11.10
2018-03-09T00:08:09.556Z,10.17
2018-03-09T00:10:37.727Z,10.27
2018-03-09T00:13:05.836Z,12.50
2018-03-09T00:15:33.964Z,12.27
2018-03-09T00:18:02.088Z,11.90
2018-03-09T00:20:30.257Z,11.20
2018-03-09T00:22:58.474Z,10.30
2018-03-09T00:25:26.707Z,11.17
2018-03-09T00:27:54.832Z,11.53
2018-03-09T00:30:23.002Z,10.80
2018-03-09T00:32:51.813Z,11.60
2018-03-09T00:35:20.048Z,13.13
2018-03-09T00:37:48.181Z,11.50
2018-03-09T00:40:16.324Z,12.10
2018-03-09T00:42:51.977Z,12.23
2018-03-09T00:45:20.096Z,9.83
2018-03-09T00:47:48.256Z,11.40
2018-03-09T00:50:16.385Z,11.13
2018-03-09T00:52:44.704Z,10.87
2018-03-09T00:55:12.831Z,11.13
2018-03-09T00:57:40.934Z,11.57
2018-03-09T01:00:09.049Z,10.87
2018-03-09T01:02:37.214Z,10.77
2018-03-09T01:05:12.661Z,12.03
2018-03-09T01:07:40.776Z,11.63
2018-03-09T01:10:08.886Z,10.83
2018-03-09T01:12:43.937Z,11.30
2018-03-09T01:15:12.071Z,11.23
2018-03-09T01:17:40.196Z,11.27
2018-03-09T01:20:09.121Z,10.00
2018-03-09T01:22:37.212Z,8.00
2018-03-09T01:25:05.315Z,9.47
2018-03-09T01:27:33.491Z,8.13
2018-03-09T01:30:01.579Z,9.00
2018-03-09T01:32:30.767Z,7.07
2018-03-09T01:34:58.934Z,8.33
2018-03-09T01:37:27.856Z,6.23
2018-03-09T01:39:56.020Z,7.43
2018-03-09T01:42:24.892Z,6.80
2018-03-09T01:44:53.011Z,5.67
2018-03-09T01:47:22.525Z,6.00
2018-03-09T01:49:51.478Z,5.03
2018-03-09T01:52:32.582Z,5.87
2018-03-09T01:55:00.802Z,6.67
2018-03-09T01:57:28.939Z,6.50
2018-03-09T01:59:57.112Z,5.27
2018-03-09T02:02:25.255Z,4.97
2018-03-09T02:04:54.486Z,4.80
2018-03-09T02:07:22.699Z,5.47
2018-03-09T02:09:50.887Z,6.47
2018-03-09T02:12:19.031Z,7.10
2018-03-09T02:14:47.908Z,7.90
2018-03-09T02:17:16.015Z,7.10
2018-03-09T02:19:44.981Z,8.80
2018-03-09T02:22:13.457Z,8.60
2018-03-09T02:24:41.550Z,8.63
2018-03-09T02:27:15.087Z,9.40
2018-03-09T02:29:43.298Z,9.00
2018-03-09T02:32:11.432Z,9.50
2018-03-09T02:34:39.542Z,9.90
2018-03-09T02:37:08.609Z,9.70
2018-03-09T02:39:36.868Z,10.40
2018-03-09T02:42:06.156Z,9.33
2018-03-09T02:44:34.305Z,9.70
2018-03-09T02:47:02.464Z,9.40
2018-03-09T02:49:30.549Z,9.00
2018-03-09T02:51:58.682Z,9.10
2018-03-09T02:54:26.938Z,8.30
2018-03-09T02:56:55.076Z,8.37
2018-03-09T02:59:33.592Z,8.20
2018-03-09T03:02:01.724Z,5.63
2018-03-09T03:04:29.825Z,7.50
2018-03-09T03:06:57.946Z,5.70
2018-03-09T03:09:26.095Z,6.83
2018-03-09T03:11:55.440Z,6.40
2018-03-09T03:14:23.651Z,6.53
2018-03-09T03:16:51.813Z,6.10
2018-03-09T03:19:19.963Z,5.30
2018-03-09T03:21:48.078Z,6.40
2018-03-09T03:24:16.170Z,5.77
2018-03-09T03:26:44.272Z,5.50
2018-03-09T03:29:12.471Z,4.73
2018-03-09T03:31:40.611Z,4.70
2018-03-09T03:34:19.773Z,4.80
2018-03-09T03:36:47.909Z,4.87
2018-03-09T03:39:16.240Z,4.73
2018-03-09T03:41:46.376Z,4.67
2018-03-09T03:44:14.447Z,4.87
2018-03-09T03:46:42.620Z,6.57
2018-03-09T03:49:10.714Z,5.70
2018-03-09T03:51:38.857Z,6.43
2018-03-09T03:54:07.043Z,4.57
2018-03-09T03:56:35.177Z,5.70
2018-03-09T03:59:03.419Z,6.00
2018-03-09T04:01:31.594Z,4.70
2018-03-09T04:04:00.622Z,5.53
2018-03-09T04:06:28.751Z,5.20
2018-03-09T04:09:01.440Z,5.53
2018-03-09T04:11:29.600Z,4.87
2018-03-09T04:13:57.747Z,5.37
2018-03-09T04:16:25.841Z,5.13
2018-03-09T04:18:54.034Z,6.23
2018-03-09T04:21:22.131Z,7.77
2018-03-09T04:23:51.134Z,6.40
2018-03-09T04:26:42.512Z,6.50
2018-03-09T04:29:10.680Z,6.43
2018-03-09T04:31:39.895Z,6.43
2018-03-09T04:34:08.742Z,6.87
2018-03-09T04:36:36.854Z,7.27
2018-03-09T04:39:05.031Z,6.60
2018-03-09T04:41:33.232Z,7.17
2018-03-09T04:44:01.485Z,7.73
2018-03-09T04:46:29.676Z,8.13
2018-03-09T04:48:57.884Z,6.53
2018-03-09T04:51:25.999Z,6.80
2018-03-09T04:53:59.447Z,7.70
2018-03-09T04:56:27.587Z,8.40
2018-03-09T04:58:55.858Z,9.03
2018-03-09T05:01:24.003Z,7.30
2018-03-09T05:03:52.908Z,7.67
2018-03-09T05:06:21.735Z,5.73
2018-03-09T05:08:49.900Z,6.90
2018-03-09T05:11:18.364Z,7.80
2018-03-09T05:13:46.549Z,6.93
2018-03-09T05:16:14.708Z,7.63
2018-03-09T05:18:42.820Z,6.50
2018-03-09T05:21:11.868Z,6.43
2018-03-09T05:23:40.052Z,5.93
2018-03-09T05:26:08.183Z,6.10
2018-03-09T05:28:36.299Z,5.93
2018-03-09T05:31:04.445Z,5.43
2018-03-09T05:33:32.605Z,6.13
2018-03-09T05:36:00.985Z,5.40
2018-03-09T05:38:29.125Z,5.53
2018-03-09T05:40:58.060Z,5.93
2018-03-09T05:43:30.693Z,5.03
2018-03-09T05:45:59.557Z,5.17
2018-03-09T05:48:27.739Z,4.93
2018-03-09T05:50:55.855Z,5.43
2018-03-09T05:53:23.968Z,4.40
2018-03-09T05:55:53.066Z,5.87
2018-03-09T05:58:22.084Z,5.20
2018-03-09T06:00:50.977Z,5.30
2018-03-09T06:03:20.008Z,5.10
2018-03-09T06:05:48.293Z,5.13
2018-03-09T06:08:31.433Z,5.67
2018-03-09T06:10:59.951Z,6.10
2018-03-09T06:13:41.898Z,5.90
2018-03-09T06:16:10.134Z,6.13
2018-03-09T06:18:39.127Z,5.70
2018-03-09T06:21:08.060Z,4.87
2018-03-09T06:23:36.180Z,5.47
2018-03-09T06:26:04.399Z,4.90
2018-03-09T06:28:34.063Z,4.20
2018-03-09T06:31:02.224Z,4.63
2018-03-09T06:33:30.346Z,4.40
2018-03-09T06:35:58.530Z,5.07
2018-03-09T06:38:27.511Z,5.37
2018-03-09T06:40:55.601Z,3.50
2018-03-09T06:46:00.979Z,4.10
2018-03-09T06:48:29.208Z,3.97
2018-03-09T06:51:04.069Z,3.10
2018-03-09T06:53:34.287Z,4.20
2018-03-09T06:56:02.802Z,3.57
2018-03-09T06:58:43.873Z,3.50
2018-03-09T07:01:12.000Z,3.43
2018-03-09T07:03:40.106Z,3.97
2018-03-09T07:06:10.723Z,2.90
2018-03-09T07:08:38.919Z,3.57
2018-03-09T07:11:07.060Z,3.57
2018-03-09T07:13:35.153Z,2.90
2018-03-09T07:16:03.290Z,2.80
2018-03-09T07:18:32.387Z,2.83
2018-03-09T07:21:00.615Z,2.83
2018-03-09T07:23:28.724Z,3.27
2018-03-09T07:25:58.471Z,2.70
2018-03-09T07:28:26.604Z,3.10
2018-03-09T07:30:54.812Z,2.90
2018-03-09T07:33:23.707Z,3.50
2018-03-09T07:38:33.759Z,2.90
2018-03-09T07:41:01.891Z,4.00
2018-03-09T07:43:30.124Z,3.93
2018-03-09T07:46:13.249Z,4.17
2018-03-09T07:48:41.495Z,3.73
2018-03-09T07:51:23.590Z,4.07
2018-03-09T07:54:13.854Z,4.33
2018-03-09T07:57:07.139Z,4.30
2018-03-09T07:59:40.645Z,4.20
2018-03-09T08:02:08.830Z,4.77
2018-03-09T08:04:37.339Z,4.20
2018-03-09T08:07:05.647Z,4.93
2018-03-09T08:09:34.074Z,4.57
2018-03-09T08:12:07.112Z,4.40
2018-03-09T08:14:36.050Z,5.00
2018-03-09T08:17:05.626Z,4.73
2018-03-09T08:19:33.990Z,4.70
2018-03-09T08:22:03.169Z,5.30
2018-03-09T08:24:40.405Z,5.83
2018-03-09T08:27:09.203Z,5.57
2018-03-09T08:29:37.440Z,5.13
2018-03-09T08:32:11.186Z,6.90
2018-03-09T08:34:41.969Z,6.17
2018-03-09T08:37:10.189Z,5.33
2018-03-09T08:39:38.461Z,6.43
2018-03-09T08:42:06.742Z,7.70
2018-03-09T08:44:34.986Z,7.37
2018-03-09T08:47:03.230Z,7.67
2018-03-09T08:49:32.366Z,7.63
2018-03-09T08:52:00.998Z,8.13
2018-03-09T08:54:29.508Z,8.40
2018-03-09T08:56:58.445Z,9.73
2018-03-09T08:59:26.835Z,8.10
2018-03-09T09:01:55.406Z,8.67
2018-03-09T09:04:23.781Z,8.40
2018-03-09T09:06:55.350Z,8.70
2018-03-09T09:09:23.953Z,9.47
2018-03-09T09:11:52.865Z,8.33
2018-03-09T09:14:23.585Z,10.20
2018-03-09T09:16:51.923Z,8.80
2018-03-09T09:19:20.965Z,9.73
2018-03-09T09:21:49.683Z,9.53
2018-03-09T09:24:20.926Z,9.57
2018-03-09T09:26:49.378Z,8.60
2018-03-09T09:29:19.699Z,10.93
2018-03-09T09:31:48.401Z,10.17
2018-03-09T09:34:20.093Z,7.67
2018-03-09T09:36:48.894Z,9.07
2018-03-09T09:39:17.479Z,10.13
2018-03-09T09:41:50.584Z,9.00
2018-03-09T09:44:19.056Z,9.60
2018-03-09T09:46:47.364Z,9.70
2018-03-09T09:49:19.439Z,9.30
2018-03-09T09:51:48.221Z,9.97
2018-03-09T09:54:16.984Z,9.87
2018-03-09T09:56:45.951Z,9.30
2018-03-09T09:59:14.152Z,8.93
2018-03-09T10:01:42.582Z,8.53
2018-03-09T10:04:10.900Z,8.80
2018-03-09T10:06:39.146Z,8.23
2018-03-09T10:09:08.229Z,7.97
2018-03-09T10:11:38.330Z,8.17
2018-03-09T10:14:10.512Z,6.93
2018-03-09T10:16:38.850Z,9.70
2018-03-09T10:19:07.877Z,7.40
2018-03-09T10:21:36.191Z,9.30
2018-03-09T10:24:04.670Z,9.23
2018-03-09T10:26:32.961Z,8.47
2018-03-09T10:29:04.943Z,6.97
2018-03-09T10:31:33.873Z,9.97
2018-03-09T10:34:04.387Z,8.50
2018-03-09T10:36:32.860Z,9.97
2018-03-09T10:39:01.200Z,8.13
2018-03-09T10:41:30.081Z,8.70
2018-03-09T10:43:58.566Z,7.90
2018-03-09T10:46:27.195Z,7.83
2018-03-09T10:48:56.339Z,8.70
2018-03-09T10:51:26.006Z,7.73
2018-03-09T10:53:54.391Z,7.77
2018-03-09T10:56:23.087Z,7.60
2018-03-09T10:58:51.436Z,7.00
2018-03-09T11:03:52.831Z,7.73
2018-03-09T11:08:53.587Z,6.70
2018-03-09T11:11:23.200Z,7.13
2018-03-09T11:13:51.951Z,7.37
2018-03-09T11:16:20.354Z,7.70
2018-03-09T11:21:22.103Z,6.80
2018-03-09T11:23:50.713Z,7.90
2018-03-09T11:26:19.024Z,6.97
2018-03-09T11:28:49.454Z,7.53
2018-03-09T11:31:18.015Z,7.80
2018-03-09T11:33:46.605Z,8.37
2018-03-09T11:36:17.178Z,6.80
2018-03-09T11:38:45.671Z,7.13
2018-03-09T11:41:14.799Z,6.40
2018-03-09T11:43:43.025Z,6.40
2018-03-09T11:46:11.333Z,7.33
2018-03-09T11:48:39.650Z,6.93
2018-03-09T11:51:08.070Z,6.50
2018-03-09T11:53:36.729Z,6.90
2018-03-09T11:56:05.784Z,7.50
2018-03-09T11:58:34.056Z,7.43
2018-03-09T12:01:02.498Z,6.63
2018-03-09T12:03:31.441Z,6.27
2018-03-09T12:09:00.449Z,7.20
2018-03-09T12:11:28.891Z,6.60
2018-03-09T12:13:57.202Z,10.57
2018-03-09T12:16:25.450Z,6.80
2018-03-09T12:18:54.291Z,5.90
2018-03-09T12:21:23.957Z,6.53
2018-03-09T12:23:52.213Z,6.87
2018-03-09T12:26:20.857Z,6.40
2018-03-09T12:28:49.139Z,7.07
2018-03-09T12:31:17.326Z,7.90
2018-03-09T12:33:45.841Z,8.27
2018-03-09T12:36:14.193Z,7.90
2018-03-09T12:38:42.676Z,7.70
2018-03-09T12:41:10.899Z,7.37
2018-03-09T12:43:40.911Z,8.00
2018-03-09T12:46:10.085Z,7.13
2018-03-09T12:48:38.842Z,6.20
2018-03-09T12:51:07.107Z,6.93
2018-03-09T12:53:36.008Z,6.90
2018-03-09T12:56:04.335Z,8.20
2018-03-09T12:58:32.633Z,6.30
2018-03-09T13:01:00.916Z,6.53
2018-03-09T13:03:29.347Z,7.23
2018-03-09T13:05:57.614Z,6.50
2018-03-09T13:08:25.827Z,6.47
2018-03-09T13:10:54.160Z,9.10
2018-03-09T13:13:23.326Z,8.50
2018-03-09T13:15:54.436Z,6.33
2018-03-09T13:18:28.167Z,6.70
2018-03-09T13:20:58.545Z,6.80
2018-03-09T13:23:28.829Z,7.50
2018-03-09T13:29:09.275Z,7.93
2018-03-09T13:31:37.502Z,6.30
2018-03-09T13:34:05.756Z,6.97
2018-03-09T13:36:34.031Z,7.67
2018-03-09T13:39:03.151Z,7.37
2018-03-09T13:41:33.837Z,7.57
2018-03-09T13:44:02.060Z,7.13
2018-03-09T13:46:30.205Z,7.03
2018-03-09T13:48:58.731Z,6.73
2018-03-09T13:51:27.116Z,7.63
2018-03-09T13:53:56.076Z,7.90
2018-03-09T13:56:24.456Z,7.57
2018-03-09T13:58:52.932Z,7.33
2018-03-09T14:01:21.300Z,7.13
2018-03-09T14:03:49.422Z,6.00
2018-03-09T14:06:17.554Z,7.27
2018-03-09T14:08:45.891Z,6.57
2018-03-09T14:11:14.861Z,6.93
2018-03-09T14:13:42.993Z,6.23
2018-03-09T14:16:11.170Z,7.13
2018-03-09T14:18:39.292Z,7.90
2018-03-09T14:21:07.411Z,8.50
2018-03-09T14:23:35.556Z,7.20
2018-03-09T14:26:04.419Z,7.80
2018-03-09T14:28:32.689Z,7.60
2018-03-09T14:31:00.811Z,7.30
2018-03-09T14:33:29.292Z,6.93
2018-03-09T14:35:57.540Z,8.13
2018-03-09T14:38:25.693Z,8.73
2018-03-09T14:40:53.989Z,7.67
2018-03-09T14:43:22.250Z,7.63
2018-03-09T14:45:50.588Z,8.10
2018-03-09T14:48:19.478Z,8.23
2018-03-09T14:50:47.660Z,7.30
2018-03-09T14:53:16.178Z,7.37
2018-03-09T14:55:44.344Z,7.77
2018-03-09T14:58:13.426Z,7.40
2018-03-09T15:00:41.802Z,6.67
2018-03-09T15:03:09.884Z,6.73
2018-03-09T15:05:38.365Z,6.57
2018-03-09T15:08:06.667Z,7.07
2018-03-09T15:10:35.111Z,7.83
2018-03-09T15:13:04.187Z,6.70
2018-03-09T15:15:33.391Z,6.80
2018-03-09T15:18:02.540Z,7.70
2018-03-09T15:20:31.692Z,7.70
2018-03-09T15:22:59.912Z,7.67
2018-03-09T15:25:28.007Z,7.87
2018-03-09T15:27:56.180Z,8.97
2018-03-09T15:30:24.703Z,9.23
2018-03-09T15:32:55.634Z,9.20
2018-03-09T15:35:26.636Z,10.97
2018-03-09T15:38:00.681Z,11.93
2018-03-09T15:40:28.796Z,9.90
2018-03-09T15:42:57.076Z,10.70
2018-03-09T15:45:26.268Z,10.77
2018-03-09T15:47:55.404Z,11.30
2018-03-09T15:50:23.856Z,10.87
2018-03-09T15:52:52.057Z,12.43
2018-03-09T15:55:20.312Z,11.30
2018-03-09T15:57:53.474Z,13.00
2018-03-09T16:00:34.196Z,12.50
2018-03-09T16:03:02.676Z,12.30
2018-03-09T16:05:31.914Z,11.47
2018-03-09T16:08:00.103Z,12.33
2018-03-09T16:10:30.414Z,12.00
2018-03-09T16:16:09.562Z,11.77
2018-03-09T16:18:38.058Z,12.00
2018-03-09T16:21:06.336Z,13.20
2018-03-09T16:23:35.920Z,13.83
2018-03-09T16:26:12.637Z,12.23
2018-03-09T16:28:42.925Z,12.37
2018-03-09T16:31:12.098Z,12.20
2018-03-09T16:33:43.876Z,12.90
2018-03-09T16:39:13.848Z,12.40
2018-03-09T16:41:43.418Z,12.93
2018-03-09T16:44:15.124Z,12.83
2018-03-09T16:46:43.868Z,12.17
2018-03-09T16:49:14.116Z,11.57
2018-03-09T16:51:42.452Z,13.00
2018-03-09T16:54:13.232Z,14.20
2018-03-09T16:56:45.756Z,12.00
2018-03-09T16:59:14.020Z,14.13
2018-03-09T17:01:44.196Z,12.27
2018-03-09T17:04:15.486Z,12.20
2018-03-09T17:06:45.640Z,12.17
2018-03-09T17:09:14.560Z,13.80
2018-03-09T17:11:42.841Z,14.60
2018-03-09T17:14:11.056Z,15.30
2018-03-09T17:16:39.177Z,16.07
2018-03-09T17:19:07.366Z,14.60
2018-03-09T17:21:39.567Z,15.03
2018-03-09T17:24:12.843Z,14.50
2018-03-09T17:26:43.349Z,15.80
2018-03-09T17:29:17.917Z,14.10
2018-03-09T17:31:46.067Z,14.37
2018-03-09T17:34:16.508Z,12.90
2018-03-09T17:36:45.485Z,13.53
2018-03-09T17:39:13.694Z,12.70
2018-03-09T17:41:43.704Z,12.93
2018-03-09T17:44:11.939Z,11.80
2018-03-09T17:46:40.242Z,11.40
2018-03-09T17:49:08.519Z,10.10
2018-03-09T17:51:37.878Z,10.57
2018-03-09T17:54:06.058Z,9.77
2018-03-09T17:56:34.250Z,10.30
2018-03-09T17:59:02.445Z,10.50
2018-03-09T18:01:30.825Z,11.40
2018-03-09T18:04:02.685Z,10.30
2018-03-09T18:06:31.913Z,11.00
2018-03-09T18:09:00.206Z,10.30
2018-03-09T18:11:28.791Z,11.50
2018-03-09T18:13:57.017Z,11.30
2018-03-09T18:16:25.287Z,10.77
2018-03-09T18:18:53.780Z,11.27
2018-03-09T18:21:22.132Z,11.33
2018-03-09T18:23:50.378Z,11.70
2018-03-09T18:26:18.545Z,12.40
2018-03-09T18:28:48.228Z,12.00
2018-03-09T18:31:16.400Z,11.57
2018-03-09T18:33:44.500Z,12.17
2018-03-09T18:36:12.638Z,12.30
2018-03-09T18:38:40.861Z,12.10
2018-03-09T18:41:09.174Z,11.80
2018-03-09T18:43:37.415Z,12.93
2018-03-09T18:46:06.974Z,12.70
2018-03-09T18:48:42.503Z,13.20
2018-03-09T18:51:11.187Z,11.50
2018-03-09T18:53:39.540Z,11.23
2018-03-09T18:56:07.755Z,12.83
2018-03-09T18:58:35.874Z,10.60
2018-03-09T19:01:04.297Z,10.97
2018-03-09T19:03:33.667Z,11.30
2018-03-09T19:06:01.838Z,12.40
2018-03-09T19:08:30.127Z,13.10
2018-03-09T19:10:58.393Z,13.00
2018-03-09T19:13:26.665Z,13.10
2018-03-09T19:15:54.791Z,12.80
2018-03-09T19:18:22.908Z,13.77
2018-03-09T19:20:51.201Z,14.90
2018-03-09T19:23:19.781Z,13.73
2018-03-09T19:25:47.985Z,13.90
2018-03-09T19:28:16.444Z,14.33
2018-03-09T19:30:44.716Z,16.20
2018-03-09T19:33:12.948Z,15.77
2018-03-09T19:35:42.387Z,17.70
2018-03-09T19:38:11.125Z,16.47
2018-03-09T19:40:39.327Z,14.37
2018-03-09T19:43:07.485Z,11.70
2018-03-09T19:45:36.411Z,12.47
2018-03-09T19:48:04.630Z,13.13
2018-03-09T19:50:32.841Z,13.20
2018-03-09T19:53:00.954Z,13.57
2018-03-09T19:55:29.075Z,12.73
2018-03-09T19:57:57.483Z,12.93
2018-03-09T20:00:25.596Z,15.00
2018-03-09T20:02:54.244Z,15.77
2018-03-09T20:05:22.433Z,16.33
2018-03-09T20:07:50.573Z,14.73
2018-03-09T20:10:18.857Z,14.00
2018-03-09T20:12:47.050Z,15.80
2018-03-09T20:15:15.116Z,15.63
2018-03-09T20:17:43.292Z,15.23
2018-03-09T20:20:11.574Z,17.53
2018-03-09T20:22:39.729Z,17.80
2018-03-09T20:25:09.161Z,17.17
2018-03-09T20:27:37.393Z,15.73
2018-03-09T20:30:06.501Z,16.17
2018-03-09T20:32:34.818Z,14.40
2018-03-09T20:35:02.953Z,15.83
2018-03-09T20:37:31.215Z,15.77
2018-03-09T20:39:59.577Z,15.63
2018-03-09T20:42:27.939Z,15.00
2018-03-09T20:44:56.985Z,15.90
2018-03-09T20:47:25.447Z,15.03
2018-03-09T20:49:53.660Z,15.77
2018-03-09T20:52:23.702Z,15.23
2018-03-09T20:54:51.869Z,15.83
2018-03-09T20:57:19.990Z,15.03
2018-03-09T20:59:48.155Z,16.77
2018-03-09T21:02:16.279Z,16.03
2018-03-09T21:04:45.261Z,16.13
2018-03-09T21:07:13.616Z,14.90
2018-03-09T21:09:41.741Z,14.90
2018-03-09T21:12:09.876Z,14.60
2018-03-09T21:14:38.805Z,15.93
2018-03-09T21:17:07.000Z,15.70
2018-03-09T21:19:35.172Z,15.57
2018-03-09T21:22:03.287Z,16.20
2018-03-09T21:24:31.686Z,16.30
2018-03-09T21:26:59.805Z,17.73
2018-03-09T21:29:28.002Z,15.70
2018-03-09T21:31:56.317Z,16.47
2018-03-09T21:34:24.670Z,17.70
2018-03-09T21:36:53.687Z,18.47
2018-03-09T21:39:23.724Z,17.43
2018-03-09T21:41:52.375Z,17.30
2018-03-09T21:44:20.524Z,18.70
2018-03-09T21:46:48.648Z,19.10
2018-03-09T21:49:16.796Z,17.20
2018-03-09T21:51:44.928Z,17.40
2018-03-09T21:54:13.099Z,18.53
2018-03-09T21:56:41.243Z,18.63
2018-03-09T21:59:10.155Z,18.77
2018-03-09T22:01:38.338Z,17.37
2018-03-09T22:04:10.079Z,19.10
2018-03-09T22:06:39.221Z,16.80
2018-03-09T22:09:07.396Z,17.73
2018-03-09T22:11:36.354Z,18.07
2018-03-09T22:14:04.566Z,18.20
2018-03-09T22:16:32.703Z,18.83
2018-03-09T22:19:01.105Z,18.40
2018-03-09T22:21:29.232Z,19.00
2018-03-09T22:23:58.150Z,19.17
2018-03-09T22:26:26.262Z,20.63
2018-03-09T22:28:54.391Z,21.80
2018-03-09T22:31:22.503Z,28.53
2018-03-09T22:33:51.223Z,29.17
2018-03-09T22:36:19.355Z,27.30
2018-03-09T22:38:47.521Z,26.70
2018-03-09T22:41:15.661Z,22.97
2018-03-09T22:43:43.953Z,22.53
2018-03-09T22:46:12.120Z,22.97
2018-03-09T22:48:40.326Z,23.43
2018-03-09T22:51:08.445Z,26.10
2018-03-09T22:53:36.675Z,23.40
2018-03-09T22:56:04.830Z,23.63
2018-03-09T22:58:32.968Z,22.00
2018-03-09T23:01:01.244Z,21.37
2018-03-09T23:03:29.400Z,22.00
2018-03-09T23:05:57.669Z,22.63
2018-03-09T23:08:25.791Z,23.30
2018-03-09T23:10:55.593Z,21.87
2018-03-09T23:13:23.705Z,21.60
2018-03-09T23:15:52.137Z,21.47
2018-03-09T23:18:23.155Z,21.47
2018-03-09T23:20:53.034Z,21.40
2018-03-09T23:23:21.135Z,22.50
2018-03-09T23:25:49.487Z,20.70
2018-03-09T23:28:17.586Z,20.77
2018-03-09T23:30:45.776Z,20.27
2018-03-09T23:33:14.033Z,20.80
2018-03-09T23:35:42.165Z,22.10
2018-03-09T23:38:10.344Z,20.67
2018-03-09T23:40:38.588Z,21.20
2018-03-09T23:43:06.692Z,21.20
2018-03-09T23:45:34.903Z,20.63
2018-03-09T23:48:03.071Z,20.23
2018-03-09T23:50:32.160Z,20.70
2018-03-09T23:53:00.296Z,21.50
2018-03-09T23:55:28.625Z,21.37
2018-03-09T23:57:56.872Z,20.40
